createdAt,value
2018-03-30T00:00:09.491Z,97220.04
2018-03-30T00:02:37.707Z,97214.34
2018-03-30T00:05:05.923Z,97217.58
2018-03-30T00:07:33.638Z,97210.35
2018-03-30T00:10:01.717Z,97222.98
2018-03-30T00:12:29.641Z,97221.51
2018-03-30T00:14:57.357Z,97218.61
2018-03-30T00:17:25.362Z,97215.53
2018-03-30T00:19:53.201Z,97212.89
2018-03-30T00:22:21.731Z,97205.08
2018-03-30T00:24:49.539Z,97204.52
2018-03-30T00:27:17.692Z,97202.56
2018-03-30T00:29:45.927Z,97195.00
2018-03-30T00:32:13.918Z,97196.95
2018-03-30T00:34:41.732Z,97199.05
2018-03-30T00:37:09.829Z,97197.39
2018-03-30T00:39:37.544Z,97198.61
2018-03-30T00:42:06.252Z,97200.26
2018-03-30T00:44:34.733Z,97195.52
2018-03-30T00:47:02.285Z,97199.62
2018-03-30T00:49:29.972Z,97193.69
2018-03-30T00:51:57.676Z,97189.72
2018-03-30T00:54:25.767Z,97185.44
2018-03-30T00:56:53.448Z,97181.41
2018-03-30T00:59:21.613Z,97172.82
2018-03-30T01:01:49.342Z,97175.93
2018-03-30T01:04:18.086Z,97169.17
2018-03-30T01:06:45.877Z,97168.08
2018-03-30T01:09:13.863Z,97165.70
2018-03-30T01:11:41.627Z,97167.27
2018-03-30T01:14:09.687Z,97160.55
2018-03-30T01:16:37.768Z,97153.19
2018-03-30T01:19:05.772Z,97152.77
2018-03-30T01:21:33.513Z,97158.96
2018-03-30T01:24:01.272Z,97153.99
2018-03-30T01:26:28.913Z,97148.01
2018-03-30T01:28:57.978Z,97153.62
2018-03-30T01:31:26.024Z,97145.18
2018-03-30T01:33:54.373Z,97146.81
2018-03-30T01:36:22.651Z,97138.70
2018-03-30T01:38:50.968Z,97145.97
2018-03-30T01:41:19.158Z,97154.86
2018-03-30T01:43:46.936Z,97154.14
2018-03-30T01:46:14.528Z,97163.27
2018-03-30T01:48:43.109Z,97149.94
2018-03-30T01:51:11.432Z,97153.70
2018-03-30T01:53:39.197Z,97163.40
2018-03-30T01:56:07.260Z,97159.53
2018-03-30T01:58:35.562Z,97150.11
2018-03-30T02:01:03.663Z,97143.07
2018-03-30T02:03:32.469Z,97135.44
2018-03-30T02:06:00.859Z,97136.02
2018-03-30T02:08:28.891Z,97139.91
2018-03-30T02:10:57.057Z,97129.05
2018-03-30T02:13:25.243Z,97136.04
2018-03-30T02:15:52.987Z,97134.77
2018-03-30T02:18:20.913Z,97133.38
2018-03-30T02:20:48.750Z,97126.05
2018-03-30T02:23:16.712Z,97120.25
2018-03-30T02:25:44.406Z,97115.14
2018-03-30T02:28:13.064Z,97116.57
2018-03-30T02:30:42.644Z,97119.97
2018-03-30T02:33:11.404Z,97111.66
2018-03-30T02:35:39.240Z,97110.70
2018-03-30T02:38:07.445Z,97107.84
2018-03-30T02:40:36.026Z,97106.44
2018-03-30T02:43:04.115Z,97102.71
2018-03-30T02:45:31.806Z,97099.09
2018-03-30T02:47:59.671Z,97094.26
2018-03-30T02:50:27.721Z,97104.16
2018-03-30T02:52:56.470Z,97102.35
2018-03-30T02:55:24.334Z,97102.91
2018-03-30T02:57:52.795Z,97099.76
2018-03-30T03:00:20.942Z,97097.73
2018-03-30T03:02:48.810Z,97095.00
2018-03-30T03:05:17.105Z,97090.67
2018-03-30T03:07:45.181Z,97087.58
2018-03-30T03:10:12.944Z,97080.37
2018-03-30T03:12:41.874Z,97091.05
2018-03-30T03:15:09.993Z,97090.26
2018-03-30T03:17:37.874Z,97087.35
2018-03-30T03:20:05.423Z,97082.09
2018-03-30T03:22:33.367Z,97080.59
2018-03-30T03:25:01.219Z,97080.22
2018-03-30T03:27:28.924Z,97074.19
2018-03-30T03:29:57.213Z,97073.67
2018-03-30T03:32:25.229Z,97073.90
2018-03-30T03:34:53.203Z,97069.55
2018-03-30T03:37:20.996Z,97066.53
2018-03-30T03:39:49.034Z,97068.89
2018-03-30T03:42:17.789Z,97072.41
2018-03-30T03:44:45.515Z,97064.25
2018-03-30T03:47:13.560Z,97051.55
2018-03-30T03:49:41.280Z,97050.27
2018-03-30T03:52:09.474Z,97043.08
2018-03-30T03:54:37.244Z,97041.50
2018-03-30T03:57:06.058Z,97040.98
2018-03-30T03:59:33.722Z,97038.16
2018-03-30T04:02:02.338Z,97034.11
2018-03-30T04:04:30.397Z,97037.59
2018-03-30T04:06:58.768Z,97041.58
2018-03-30T04:09:26.770Z,97038.98
2018-03-30T04:11:55.595Z,97040.69
2018-03-30T04:14:23.454Z,97041.58
2018-03-30T04:16:51.130Z,97042.19
2018-03-30T04:19:19.079Z,97043.30
2018-03-30T04:21:47.258Z,97039.50
2018-03-30T04:24:15.030Z,97031.00
2018-03-30T04:26:42.744Z,97027.27
2018-03-30T04:29:10.649Z,97032.82
2018-03-30T04:31:38.539Z,97029.94
2018-03-30T04:34:06.688Z,97030.08
2018-03-30T04:36:34.439Z,97025.86
2018-03-30T04:39:02.719Z,97021.14
2018-03-30T04:41:30.993Z,97025.32
2018-03-30T04:43:58.669Z,97028.83
2018-03-30T04:46:27.598Z,97034.09
2018-03-30T04:48:55.245Z,97035.09
2018-03-30T04:51:23.665Z,97045.91
2018-03-30T04:53:51.286Z,97041.41
2018-03-30T04:56:19.161Z,97037.48
2018-03-30T04:58:47.179Z,97033.28
2018-03-30T05:01:16.503Z,97028.86
2018-03-30T05:03:44.349Z,97030.96
2018-03-30T05:06:13.705Z,97030.57
2018-03-30T05:08:41.399Z,97032.05
2018-03-30T05:11:09.662Z,97023.03
2018-03-30T05:13:37.815Z,97020.66
2018-03-30T05:16:05.553Z,97021.41
2018-03-30T05:18:34.223Z,97023.75
2018-03-30T05:21:02.266Z,97024.02
2018-03-30T05:23:30.001Z,97015.62
2018-03-30T05:25:58.125Z,97006.68
2018-03-30T05:28:26.638Z,96997.98
2018-03-30T05:30:54.959Z,96986.78
2018-03-30T05:33:22.880Z,96984.45
2018-03-30T05:35:50.665Z,96992.41
2018-03-30T05:38:19.171Z,96983.94
2018-03-30T05:40:46.953Z,96998.00
2018-03-30T05:43:15.206Z,96999.36
2018-03-30T05:45:42.909Z,96989.36
2018-03-30T05:48:11.156Z,96988.47
2018-03-30T05:50:39.224Z,96986.66
2018-03-30T05:53:07.136Z,96983.23
2018-03-30T05:55:35.536Z,96986.22
2018-03-30T05:58:03.389Z,96987.28
2018-03-30T06:00:31.835Z,96989.81
2018-03-30T06:02:59.621Z,96985.48
2018-03-30T06:05:27.970Z,96982.84
2018-03-30T06:07:55.610Z,96980.44
2018-03-30T06:10:23.501Z,96968.45
2018-03-30T06:12:51.648Z,96966.98
2018-03-30T06:15:19.485Z,96961.02
2018-03-30T06:17:47.985Z,96960.44
2018-03-30T06:20:15.650Z,96964.70
2018-03-30T06:22:43.699Z,96962.86
2018-03-30T06:25:12.305Z,96956.59
2018-03-30T06:27:40.346Z,96955.59
2018-03-30T06:30:09.301Z,96951.87
2018-03-30T06:32:37.209Z,96958.10
2018-03-30T06:35:05.173Z,96956.45
2018-03-30T06:37:33.200Z,96955.13
2018-03-30T06:40:01.005Z,96949.36
2018-03-30T06:42:29.440Z,96948.88
2018-03-30T06:44:57.291Z,96946.81
2018-03-30T06:47:25.151Z,96944.33
2018-03-30T06:49:53.785Z,96946.23
2018-03-30T06:52:21.701Z,96948.08
2018-03-30T06:54:49.706Z,96945.14
2018-03-30T06:57:17.754Z,96950.53
2018-03-30T06:59:45.899Z,96948.34
2018-03-30T07:02:13.650Z,96938.55
2018-03-30T07:04:42.015Z,96945.84
2018-03-30T07:07:10.049Z,96934.08
2018-03-30T07:09:38.509Z,96932.67
2018-03-30T07:12:06.754Z,96931.34
2018-03-30T07:14:34.435Z,96924.89
2018-03-30T07:17:02.260Z,96918.25
2018-03-30T07:19:30.801Z,96916.28
2018-03-30T07:21:58.404Z,96918.22
2018-03-30T07:24:26.436Z,96917.33
2018-03-30T07:26:54.570Z,96906.64
2018-03-30T07:29:23.151Z,96900.00
2018-03-30T07:31:51.326Z,96905.33
2018-03-30T07:34:18.976Z,96900.31
2018-03-30T07:36:46.956Z,96902.22
2018-03-30T07:39:14.881Z,96901.84
2018-03-30T07:41:46.801Z,96899.16
2018-03-30T07:44:14.614Z,96899.52
2018-03-30T07:46:42.412Z,96896.21
2018-03-30T07:49:10.393Z,96897.09
2018-03-30T07:51:38.514Z,96882.27
2018-03-30T07:54:06.965Z,96883.97
2018-03-30T07:56:34.728Z,96883.36
2018-03-30T07:59:02.520Z,96881.66
2018-03-30T08:01:30.226Z,96864.90
2018-03-30T08:03:58.416Z,96860.67
2018-03-30T08:06:26.531Z,96850.73
2018-03-30T08:08:54.471Z,96855.66
2018-03-30T08:11:23.130Z,96847.85
2018-03-30T08:13:51.250Z,96841.83
2018-03-30T08:16:19.871Z,96827.83
2018-03-30T08:18:48.211Z,96824.28
2018-03-30T08:21:16.102Z,96819.28
2018-03-30T08:23:43.814Z,96817.58
2018-03-30T08:26:11.990Z,96813.80
2018-03-30T08:28:39.894Z,96802.02
2018-03-30T08:31:08.051Z,96794.66
2018-03-30T08:33:35.816Z,96790.98
2018-03-30T08:36:04.276Z,96789.73
2018-03-30T08:38:32.681Z,96786.27
2018-03-30T08:41:00.581Z,96788.11
2018-03-30T08:43:29.137Z,96792.55
2018-03-30T08:45:56.692Z,96784.27
2018-03-30T08:48:24.861Z,96784.55
2018-03-30T08:50:52.696Z,96775.90
2018-03-30T08:53:20.496Z,96773.61
2018-03-30T08:55:48.421Z,96769.73
2018-03-30T08:58:16.451Z,96770.03
2018-03-30T09:00:44.383Z,96761.66
2018-03-30T09:03:12.421Z,96764.05
2018-03-30T09:05:41.210Z,96756.42
2018-03-30T09:08:09.252Z,96756.46
2018-03-30T09:10:37.467Z,96753.67
2018-03-30T09:13:05.607Z,96741.63
2018-03-30T09:15:34.172Z,96733.77
2018-03-30T09:18:02.298Z,96720.38
2018-03-30T09:20:30.310Z,96721.25
2018-03-30T09:22:58.375Z,96713.23
2018-03-30T09:25:26.253Z,96711.56
2018-03-30T09:27:54.155Z,96703.39
2018-03-30T09:30:22.447Z,96702.50
2018-03-30T09:32:50.215Z,96687.43
2018-03-30T09:35:18.302Z,96686.16
2018-03-30T09:37:46.161Z,96682.08
2018-03-30T09:40:14.365Z,96685.33
2018-03-30T09:42:42.885Z,96674.05
2018-03-30T09:45:10.567Z,96666.03
2018-03-30T09:47:38.475Z,96671.37
2018-03-30T09:50:06.636Z,96667.75
2018-03-30T09:52:34.287Z,96659.94
2018-03-30T09:55:01.951Z,96662.98
2018-03-30T09:57:30.357Z,96652.44
2018-03-30T09:59:58.170Z,96644.37
2018-03-30T10:02:29.257Z,96641.19
2018-03-30T10:05:01.783Z,96631.63
2018-03-30T10:07:29.823Z,96624.22
2018-03-30T10:09:58.512Z,96610.03
2018-03-30T10:12:26.118Z,96604.69
2018-03-30T10:14:54.036Z,96599.11
2018-03-30T10:17:22.667Z,96595.30
2018-03-30T10:19:50.507Z,96588.34
2018-03-30T10:22:18.283Z,96583.39
2018-03-30T10:24:46.014Z,96582.31
2018-03-30T10:27:13.776Z,96569.27
2018-03-30T10:29:41.554Z,96568.03
2018-03-30T10:32:09.306Z,96571.03
2018-03-30T10:34:37.167Z,96561.33
2018-03-30T10:37:04.963Z,96548.18
2018-03-30T10:39:33.002Z,96542.16
2018-03-30T10:42:00.958Z,96546.90
2018-03-30T10:44:29.065Z,96545.98
2018-03-30T10:46:56.928Z,96536.98
2018-03-30T10:49:24.506Z,96541.49
2018-03-30T10:51:52.586Z,96539.39
2018-03-30T10:54:20.447Z,96532.37
2018-03-30T10:56:49.238Z,96535.61
2018-03-30T10:59:17.013Z,96529.19
2018-03-30T11:01:45.797Z,96529.48
2018-03-30T11:04:13.564Z,96519.02
2018-03-30T11:06:41.483Z,96516.36
2018-03-30T11:09:09.119Z,96515.50
2018-03-30T11:11:37.225Z,96518.84
2018-03-30T11:14:04.936Z,96509.93
2018-03-30T11:16:32.495Z,96507.91
2018-03-30T11:19:00.236Z,96517.34
2018-03-30T11:21:27.827Z,96495.27
2018-03-30T11:23:55.723Z,96512.80
2018-03-30T11:26:23.597Z,96497.69
2018-03-30T11:28:51.231Z,96499.23
2018-03-30T11:31:19.284Z,96496.16
2018-03-30T11:33:47.266Z,96503.39
2018-03-30T11:36:14.843Z,96494.95
2018-03-30T11:38:42.643Z,96492.09
2018-03-30T11:41:10.379Z,96494.60
2018-03-30T11:43:38.123Z,96499.41
2018-03-30T11:46:05.963Z,96497.23
2018-03-30T11:48:33.507Z,96485.66
2018-03-30T11:51:01.548Z,96488.37
2018-03-30T11:53:30.172Z,96484.52
2018-03-30T11:55:58.180Z,96470.04
2018-03-30T11:58:26.112Z,96475.67
2018-03-30T12:00:54.063Z,96464.44
2018-03-30T12:03:22.108Z,96457.92
2018-03-30T12:05:49.818Z,96464.11
2018-03-30T12:08:18.368Z,96457.08
2018-03-30T12:10:46.742Z,96447.97
2018-03-30T12:13:14.708Z,96453.27
2018-03-30T12:15:42.397Z,96440.03
2018-03-30T12:18:10.210Z,96430.48
2018-03-30T12:20:37.981Z,96420.53
2018-03-30T12:23:06.021Z,96406.59
2018-03-30T12:25:34.174Z,96407.20
2018-03-30T12:28:02.133Z,96393.45
2018-03-30T12:30:29.962Z,96392.56
2018-03-30T12:32:58.012Z,96398.28
2018-03-30T12:35:25.868Z,96412.29
2018-03-30T12:37:53.962Z,96396.06
2018-03-30T12:40:21.872Z,96390.05
2018-03-30T12:42:49.550Z,96381.30
2018-03-30T12:45:17.573Z,96364.66
2018-03-30T12:47:45.542Z,96356.95
2018-03-30T12:50:13.159Z,96349.30
2018-03-30T12:52:41.044Z,96342.66
2018-03-30T12:55:09.361Z,96334.94
2018-03-30T12:57:36.946Z,96332.56
2018-03-30T13:00:04.785Z,96329.11
2018-03-30T13:02:32.532Z,96317.77
2018-03-30T13:05:00.388Z,96319.42
2018-03-30T13:07:28.309Z,96319.34
2018-03-30T13:09:56.171Z,96313.69
2018-03-30T13:12:24.197Z,96307.66
2018-03-30T13:14:51.783Z,96318.35
2018-03-30T13:17:19.619Z,96309.66
2018-03-30T13:19:47.538Z,96311.20
2018-03-30T13:22:15.299Z,96301.11
2018-03-30T13:24:42.858Z,96305.03
2018-03-30T13:27:10.878Z,96283.88
2018-03-30T13:29:39.178Z,96284.95
2018-03-30T13:32:07.234Z,96284.66
2018-03-30T13:34:35.177Z,96275.13
2018-03-30T13:37:03.255Z,96268.91
2018-03-30T13:39:31.402Z,96272.46
2018-03-30T13:41:58.958Z,96275.55
2018-03-30T13:44:26.832Z,96275.67
2018-03-30T13:46:54.934Z,96260.34
2018-03-30T13:49:22.944Z,96258.28
2018-03-30T13:51:56.399Z,96240.80
2018-03-30T13:54:24.354Z,96221.33
2018-03-30T13:57:08.792Z,96232.43
2018-03-30T13:59:38.282Z,96221.42
2018-03-30T14:02:13.787Z,96206.55
2018-03-30T14:04:46.563Z,96189.42
2018-03-30T14:07:24.438Z,96181.38
2018-03-30T14:12:58.553Z,96155.44
2018-03-30T14:15:28.299Z,96172.81
2018-03-30T14:17:57.205Z,96142.41
2018-03-30T14:20:27.001Z,96133.16
2018-03-30T14:22:55.984Z,96146.42
2018-03-30T14:25:23.931Z,96147.68
2018-03-30T14:27:52.662Z,96138.38
2018-03-30T14:30:24.869Z,96131.23
2018-03-30T14:33:01.333Z,96128.69
2018-03-30T14:35:39.780Z,96122.05
2018-03-30T14:38:08.926Z,96121.61
2018-03-30T14:40:37.708Z,96105.38
2018-03-30T14:43:15.744Z,96114.73
2018-03-30T14:48:51.827Z,96105.67
2018-03-30T14:54:30.010Z,96101.88
2018-03-30T14:57:04.129Z,96096.46
2018-03-30T14:59:35.751Z,96083.79
2018-03-30T15:02:16.321Z,96065.45
2018-03-30T15:04:45.318Z,96067.69
2018-03-30T15:07:16.769Z,96059.39
2018-03-30T15:09:45.158Z,96065.95
2018-03-30T15:15:32.286Z,96069.08
2018-03-30T15:18:05.383Z,96074.30
2018-03-30T15:20:35.089Z,96088.83
2018-03-30T15:23:16.334Z,96093.69
2018-03-30T15:25:47.228Z,96087.56
2018-03-30T15:28:15.929Z,96100.20
2018-03-30T15:30:44.740Z,96096.65
2018-03-30T15:33:25.805Z,96097.13
2018-03-30T15:38:53.036Z,96103.52
2018-03-30T15:41:20.611Z,96100.95
2018-03-30T15:43:48.927Z,96094.37
2018-03-30T15:46:19.566Z,96099.83
2018-03-30T15:48:47.611Z,96097.79
2018-03-30T15:51:19.182Z,96099.09
2018-03-30T15:53:46.957Z,96094.95
2018-03-30T15:56:18.170Z,96090.87
2018-03-30T15:58:45.895Z,96085.38
2018-03-30T16:01:14.134Z,96087.30
2018-03-30T16:03:42.289Z,96084.41
2018-03-30T16:06:11.694Z,96083.59
2018-03-30T16:08:39.627Z,96082.65
2018-03-30T16:11:12.672Z,96085.92
2018-03-30T16:13:40.679Z,96070.39
2018-03-30T16:16:08.936Z,96070.47
2018-03-30T16:18:48.688Z,96061.90
2018-03-30T16:21:16.576Z,96069.30
2018-03-30T16:23:44.232Z,96064.01
2018-03-30T16:26:11.785Z,96060.66
2018-03-30T16:28:39.141Z,96062.80
2018-03-30T16:31:06.343Z,96058.95
2018-03-30T16:33:33.460Z,96051.45
2018-03-30T16:36:00.785Z,96056.54
2018-03-30T16:38:29.052Z,96060.02
2018-03-30T16:40:56.359Z,96059.03
2018-03-30T16:43:24.133Z,96064.34
2018-03-30T16:45:51.841Z,96064.34
2018-03-30T16:48:19.217Z,96070.09
2018-03-30T16:50:46.593Z,96075.10
2018-03-30T16:53:13.890Z,96085.05
2018-03-30T16:55:41.120Z,96086.63
2018-03-30T16:58:08.425Z,96089.02
2018-03-30T17:00:35.619Z,96096.16
2018-03-30T17:03:02.794Z,96110.92
2018-03-30T17:05:30.265Z,96122.64
2018-03-30T17:07:57.429Z,96131.81
2018-03-30T17:10:24.570Z,96141.34
2018-03-30T17:12:51.830Z,96156.86
2018-03-30T17:15:19.471Z,96171.16
2018-03-30T17:17:46.757Z,96198.55
2018-03-30T17:20:14.775Z,96219.20
2018-03-30T17:22:42.011Z,96222.30
2018-03-30T17:25:09.340Z,96233.59
2018-03-30T17:27:36.444Z,96233.11
2018-03-30T17:30:03.821Z,96247.14
2018-03-30T17:32:30.978Z,96251.34
2018-03-30T17:34:59.270Z,96245.69
2018-03-30T17:37:26.875Z,96255.83
2018-03-30T17:39:54.124Z,96255.83
2018-03-30T17:42:21.164Z,96262.81
2018-03-30T17:44:48.832Z,96266.36
2018-03-30T17:47:16.641Z,96263.34
2018-03-30T17:49:44.535Z,96265.20
2018-03-30T17:52:11.755Z,96272.13
2018-03-30T17:54:38.970Z,96276.06
2018-03-30T17:57:06.644Z,96275.91
2018-03-30T17:59:34.404Z,96274.78
2018-03-30T18:02:01.741Z,96291.06
2018-03-30T18:04:29.456Z,96296.42
2018-03-30T18:06:56.884Z,96292.56
2018-03-30T18:09:23.960Z,96292.26
2018-03-30T18:11:51.150Z,96293.22
2018-03-30T18:14:18.457Z,96291.14
2018-03-30T18:16:45.716Z,96293.50
2018-03-30T18:19:13.237Z,96307.34
2018-03-30T18:21:40.389Z,96316.70
2018-03-30T18:24:07.564Z,96325.09
2018-03-30T18:26:35.167Z,96325.55
2018-03-30T18:29:02.470Z,96325.14
2018-03-30T18:31:30.471Z,96329.85
2018-03-30T18:33:57.816Z,96330.80
2018-03-30T18:36:25.016Z,96334.75
2018-03-30T18:38:52.082Z,96332.14
2018-03-30T18:41:20.134Z,96325.64
2018-03-30T18:43:47.999Z,96336.98
2018-03-30T18:46:15.650Z,96347.03
2018-03-30T18:48:43.353Z,96357.95
2018-03-30T18:51:11.181Z,96363.38
2018-03-30T18:53:38.657Z,96373.61
2018-03-30T18:56:06.179Z,96382.80
2018-03-30T18:58:33.350Z,96386.28
2018-03-30T19:01:00.549Z,96400.06
2018-03-30T19:03:27.681Z,96397.80
2018-03-30T19:05:55.490Z,96388.31
2018-03-30T19:08:22.952Z,96372.51
2018-03-30T19:10:50.243Z,96366.23
2018-03-30T19:13:18.010Z,96354.26
2018-03-30T19:15:45.710Z,96348.36
2018-03-30T19:18:13.011Z,96373.44
2018-03-30T19:20:40.721Z,96380.71
2018-03-30T19:23:08.056Z,96375.47
2018-03-30T19:25:35.512Z,96382.54
2018-03-30T19:28:02.696Z,96381.66
2018-03-30T19:30:30.052Z,96382.55
2018-03-30T19:32:57.602Z,96380.89
2018-03-30T19:35:25.325Z,96376.50
2018-03-30T19:37:52.561Z,96392.22
2018-03-30T19:40:20.176Z,96393.02
2018-03-30T19:42:47.923Z,96394.12
2018-03-30T19:45:16.007Z,96403.64
2018-03-30T19:47:43.200Z,96409.00
2018-03-30T19:50:10.778Z,96403.92
2018-03-30T19:52:38.482Z,96408.35
2018-03-30T19:55:07.193Z,96412.95
2018-03-30T19:57:34.322Z,96419.44
2018-03-30T20:00:01.639Z,96415.64
2018-03-30T20:02:30.022Z,96396.59
2018-03-30T20:04:57.543Z,96395.19
2018-03-30T20:07:24.868Z,96389.88
2018-03-30T20:09:53.307Z,96398.28
2018-03-30T20:12:21.220Z,96391.70
2018-03-30T20:14:48.855Z,96380.86
2018-03-30T20:17:16.056Z,96377.16
2018-03-30T20:19:43.696Z,96369.47
2018-03-30T20:22:11.147Z,96365.41
2018-03-30T20:24:38.188Z,96368.39
2018-03-30T20:27:05.657Z,96367.45
2018-03-30T20:29:33.002Z,96372.41
2018-03-30T20:32:00.414Z,96367.22
2018-03-30T20:34:27.892Z,96360.69
2018-03-30T20:36:55.686Z,96374.92
2018-03-30T20:39:23.662Z,96378.81
2018-03-30T20:41:52.004Z,96375.13
2018-03-30T20:44:19.130Z,96384.14
2018-03-30T20:46:46.165Z,96382.63
2018-03-30T20:49:13.492Z,96376.36
2018-03-30T20:51:40.535Z,96387.72
2018-03-30T20:54:07.752Z,96385.48
2018-03-30T20:56:34.998Z,96403.00
2018-03-30T20:59:02.282Z,96400.09
2018-03-30T21:01:29.518Z,96394.05
2018-03-30T21:03:56.751Z,96390.03
2018-03-30T21:06:23.993Z,96393.19
2018-03-30T21:08:51.242Z,96386.45
2018-03-30T21:11:18.556Z,96375.38
2018-03-30T21:13:45.577Z,96384.95
2018-03-30T21:16:12.670Z,96391.51
2018-03-30T21:18:39.722Z,96395.04
2018-03-30T21:21:06.736Z,96395.72
2018-03-30T21:23:33.936Z,96387.11
2018-03-30T21:26:01.123Z,96391.63
2018-03-30T21:28:28.483Z,96400.47
2018-03-30T21:30:56.084Z,96401.95
2018-03-30T21:33:23.447Z,96410.34
2018-03-30T21:35:50.867Z,96419.80
2018-03-30T21:38:18.186Z,96427.51
2018-03-30T21:40:45.192Z,96428.72
2018-03-30T21:43:12.242Z,96437.54
2018-03-30T21:45:39.331Z,96437.20
2018-03-30T21:48:06.528Z,96435.88
2018-03-30T21:50:33.973Z,96442.69
2018-03-30T21:53:01.158Z,96434.54
2018-03-30T21:55:28.402Z,96435.66
2018-03-30T21:57:55.572Z,96432.34
2018-03-30T22:00:22.922Z,96434.30
2018-03-30T22:02:50.151Z,96430.26
2018-03-30T22:05:17.771Z,96428.05
2018-03-30T22:07:44.885Z,96424.92
2018-03-30T22:10:12.069Z,96429.93
2018-03-30T22:12:39.465Z,96437.12
2018-03-30T22:15:06.560Z,96427.09
2018-03-30T22:17:34.148Z,96427.65
2018-03-30T22:20:01.362Z,96434.40
2018-03-30T22:22:28.447Z,96429.70
2018-03-30T22:24:55.747Z,96430.99
2018-03-30T22:27:22.931Z,96423.34
2018-03-30T22:29:50.193Z,96422.22
2018-03-30T22:32:17.377Z,96427.75
2018-03-30T22:34:44.648Z,96431.89
2018-03-30T22:37:13.030Z,96431.95
2018-03-30T22:39:40.181Z,96422.88
2018-03-30T22:42:07.172Z,96423.98
2018-03-30T22:44:34.527Z,96415.20
2018-03-30T22:47:01.708Z,96421.48
2018-03-30T22:49:29.410Z,96420.45
2018-03-30T22:51:56.431Z,96420.89
2018-03-30T22:54:23.557Z,96418.99
2018-03-30T22:56:50.561Z,96419.49
2018-03-30T22:59:17.683Z,96410.23
2018-03-30T23:01:44.704Z,96414.94
2018-03-30T23:04:11.727Z,96410.20
2018-03-30T23:06:38.831Z,96406.38
2018-03-30T23:09:06.091Z,96405.33
2018-03-30T23:11:33.593Z,96404.13
2018-03-30T23:14:00.591Z,96402.27
2018-03-30T23:16:27.616Z,96397.13
2018-03-30T23:18:54.783Z,96397.46
2018-03-30T23:21:21.937Z,96387.71
2018-03-30T23:23:49.098Z,96392.12
2018-03-30T23:26:16.678Z,96386.23
2018-03-30T23:28:43.803Z,96387.64
2018-03-30T23:31:10.911Z,96376.66
2018-03-30T23:33:38.316Z,96373.59
2018-03-30T23:36:05.398Z,96380.64
2018-03-30T23:38:32.806Z,96378.14
2018-03-30T23:41:00.207Z,96383.84
2018-03-30T23:43:27.394Z,96388.59
2018-03-30T23:45:54.541Z,96394.61
2018-03-30T23:48:21.642Z,96376.94
2018-03-30T23:50:49.003Z,96380.39
2018-03-30T23:53:16.102Z,96372.75
2018-03-30T23:55:43.255Z,96376.34
2018-03-30T23:58:10.449Z,96382.44
